sensor_id;sensor_type;location;lat;lon;timestamp;temperature;humidity
10980;DHT22;5543;51.734;8.744;2023-04-03T00:01:20;1.60;99.90
10980;DHT22;5543;51.734;8.744;2023-04-03T00:03:49;1.60;99.90
10980;DHT22;5543;51.734;8.744;2023-04-03T00:06:19;1.50;99.90
10980;DHT22;5543;51.734;8.744;2023-04-03T00:08:47;1.50;99.90
10980;DHT22;5543;51.734;8.744;2023-04-03T00:11:18;1.10;99.90
10980;DHT22;5543;51.734;8.744;2023-04-03T00:13:46;1.40;99.90
10980;DHT22;5543;51.734;8.744;2023-04-03T00:16:15;1.40;99.90
10980;DHT22;5543;51.734;8.744;2023-04-03T00:18:44;1.30;99.90
10980;DHT22;5543;51.734;8.744;2023-04-03T00:21:14;1.30;99.90
10980;DHT22;5543;51.734;8.744;2023-04-03T00:23:43;1.30;99.90
10980;DHT22;5543;51.734;8.744;2023-04-03T00:26:12;1.30;99.90
10980;DHT22;5543;51.734;8.744;2023-04-03T00:28:42;1.30;99.90
10980;DHT22;5543;51.734;8.744;2023-04-03T00:31:14;1.30;99.90
10980;DHT22;5543;51.734;8.744;2023-04-03T00:33:44;1.40;99.90
10980;DHT22;5543;51.734;8.744;2023-04-03T00:36:12;1.30;99.90
10980;DHT22;5543;51.734;8.744;2023-04-03T00:38:41;1.60;99.90
10980;DHT22;5543;51.734;8.744;2023-04-03T00:41:09;1.30;99.90
10980;DHT22;5543;51.734;8.744;2023-04-03T00:43:38;1.40;99.90
10980;DHT22;5543;51.734;8.744;2023-04-03T00:46:08;1.30;99.90
10980;DHT22;5543;51.734;8.744;2023-04-03T00:48:39;1.30;99.90
10980;DHT22;5543;51.734;8.744;2023-04-03T00:51:12;1.30;99.90
10980;DHT22;5543;51.734;8.744;2023-04-03T00:53:44;1.30;99.90
10980;DHT22;5543;51.734;8.744;2023-04-03T00:56:17;1.20;99.90
10980;DHT22;5543;51.734;8.744;2023-04-03T00:58:50;1.20;99.90
10980;DHT22;5543;51.734;8.744;2023-04-03T01:01:23;1.10;99.90
10980;DHT22;5543;51.734;8.744;2023-04-03T01:03:52;1.30;99.90
10980;DHT22;5543;51.734;8.744;2023-04-03T01:06:24;1.00;99.90
10980;DHT22;5543;51.734;8.744;2023-04-03T01:08:55;1.00;99.90
10980;DHT22;5543;51.734;8.744;2023-04-03T01:11:23;1.20;99.90
10980;DHT22;5543;51.734;8.744;2023-04-03T01:13:52;0.90;99.90
10980;DHT22;5543;51.734;8.744;2023-04-03T01:16:22;0.90;99.90
10980;DHT22;5543;51.734;8.744;2023-04-03T01:18:51;1.00;99.90
10980;DHT22;5543;51.734;8.744;2023-04-03T01:21:54;1.00;99.90
10980;DHT22;5543;51.734;8.744;2023-04-03T01:24:34;1.00;99.90
10980;DHT22;5543;51.734;8.744;2023-04-03T01:27:07;1.00;99.90
10980;DHT22;5543;51.734;8.744;2023-04-03T01:29:37;1.00;99.90
10980;DHT22;5543;51.734;8.744;2023-04-03T01:32:07;1.00;99.90
10980;DHT22;5543;51.734;8.744;2023-04-03T01:34:35;1.00;99.90
10980;DHT22;5543;51.734;8.744;2023-04-03T01:37:03;0.90;99.90
10980;DHT22;5543;51.734;8.744;2023-04-03T01:39:32;0.90;99.90
10980;DHT22;5543;51.734;8.744;2023-04-03T01:42:00;0.90;99.90
10980;DHT22;5543;51.734;8.744;2023-04-03T01:44:33;0.70;99.90
10980;DHT22;5543;51.734;8.744;2023-04-03T01:47:01;0.80;99.90
10980;DHT22;5543;51.734;8.744;2023-04-03T01:49:31;0.70;99.90
10980;DHT22;5543;51.734;8.744;2023-04-03T01:51:59;0.70;99.90
10980;DHT22;5543;51.734;8.744;2023-04-03T01:54:27;0.60;99.90
10980;DHT22;5543;51.734;8.744;2023-04-03T01:56:56;0.70;99.90
10980;DHT22;5543;51.734;8.744;2023-04-03T01:59:24;0.50;99.90
10980;DHT22;5543;51.734;8.744;2023-04-03T02:01:53;0.40;99.90
10980;DHT22;5543;51.734;8.744;2023-04-03T02:04:21;0.50;99.90
10980;DHT22;5543;51.734;8.744;2023-04-03T02:06:51;0.30;99.90
10980;DHT22;5543;51.734;8.744;2023-04-03T02:09:20;0.40;99.90
10980;DHT22;5543;51.734;8.744;2023-04-03T02:11:48;0.50;99.90
10980;DHT22;5543;51.734;8.744;2023-04-03T02:14:17;0.20;99.90
10980;DHT22;5543;51.734;8.744;2023-04-03T02:16:46;0.20;99.90
10980;DHT22;5543;51.734;8.744;2023-04-03T02:19:16;0.10;99.90
10980;DHT22;5543;51.734;8.744;2023-04-03T02:21:45;0.00;99.90
10980;DHT22;5543;51.734;8.744;2023-04-03T02:24:15;0.00;99.90
10980;DHT22;5543;51.734;8.744;2023-04-03T02:26:43;-0.10;99.90
10980;DHT22;5543;51.734;8.744;2023-04-03T02:29:12;-0.20;99.90
10980;DHT22;5543;51.734;8.744;2023-04-03T02:31:41;-0.20;99.90
10980;DHT22;5543;51.734;8.744;2023-04-03T02:34:09;-0.20;99.90
10980;DHT22;5543;51.734;8.744;2023-04-03T02:36:38;-0.10;99.90
10980;DHT22;5543;51.734;8.744;2023-04-03T02:39:07;-0.30;99.90
10980;DHT22;5543;51.734;8.744;2023-04-03T02:41:37;-0.50;99.90
10980;DHT22;5543;51.734;8.744;2023-04-03T02:44:06;-0.50;99.90
10980;DHT22;5543;51.734;8.744;2023-04-03T02:46:38;-0.40;99.90
10980;DHT22;5543;51.734;8.744;2023-04-03T02:49:07;-0.40;99.90
10980;DHT22;5543;51.734;8.744;2023-04-03T02:51:36;-0.50;99.90
10980;DHT22;5543;51.734;8.744;2023-04-03T02:54:04;-0.50;99.90
10980;DHT22;5543;51.734;8.744;2023-04-03T02:56:33;-0.50;99.90
10980;DHT22;5543;51.734;8.744;2023-04-03T02:59:03;-0.50;99.90
10980;DHT22;5543;51.734;8.744;2023-04-03T03:01:32;-0.60;99.90
10980;DHT22;5543;51.734;8.744;2023-04-03T03:04:00;-0.60;99.90
10980;DHT22;5543;51.734;8.744;2023-04-03T03:06:29;-0.80;99.90
10980;DHT22;5543;51.734;8.744;2023-04-03T03:08:58;-0.60;99.90
10980;DHT22;5543;51.734;8.744;2023-04-03T03:11:26;-0.70;99.90
10980;DHT22;5543;51.734;8.744;2023-04-03T03:13:54;-1.10;99.90
10980;DHT22;5543;51.734;8.744;2023-04-03T03:16:24;-0.80;99.90
10980;DHT22;5543;51.734;8.744;2023-04-03T03:18:54;-0.90;99.90
10980;DHT22;5543;51.734;8.744;2023-04-03T03:21:24;-0.90;99.90
10980;DHT22;5543;51.734;8.744;2023-04-03T03:23:53;-1.00;99.90
10980;DHT22;5543;51.734;8.744;2023-04-03T03:26:21;-1.00;99.90
10980;DHT22;5543;51.734;8.744;2023-04-03T03:28:50;-1.00;99.90
10980;DHT22;5543;51.734;8.744;2023-04-03T03:31:19;-1.00;99.90
10980;DHT22;5543;51.734;8.744;2023-04-03T03:33:49;-1.00;99.90
10980;DHT22;5543;51.734;8.744;2023-04-03T03:36:18;-0.70;99.90
10980;DHT22;5543;51.734;8.744;2023-04-03T03:39:01;-1.00;99.90
10980;DHT22;5543;51.734;8.744;2023-04-03T03:41:30;-1.00;99.90
10980;DHT22;5543;51.734;8.744;2023-04-03T03:43:59;-1.00;99.90
10980;DHT22;5543;51.734;8.744;2023-04-03T03:46:27;-0.80;99.90
10980;DHT22;5543;51.734;8.744;2023-04-03T03:48:57;-1.10;99.90
10980;DHT22;5543;51.734;8.744;2023-04-03T03:51:27;-1.00;99.90
10980;DHT22;5543;51.734;8.744;2023-04-03T03:53:56;-1.10;99.90
10980;DHT22;5543;51.734;8.744;2023-04-03T03:56:24;-1.00;99.90
10980;DHT22;5543;51.734;8.744;2023-04-03T03:58:53;-1.00;99.90
10980;DHT22;5543;51.734;8.744;2023-04-03T04:01:23;-1.00;99.90
10980;DHT22;5543;51.734;8.744;2023-04-03T04:03:52;-1.00;99.90
10980;DHT22;5543;51.734;8.744;2023-04-03T04:06:23;-1.00;99.90
10980;DHT22;5543;51.734;8.744;2023-04-03T04:08:53;-1.00;99.90
10980;DHT22;5543;51.734;8.744;2023-04-03T04:11:21;-0.70;99.90
10980;DHT22;5543;51.734;8.744;2023-04-03T04:13:50;-1.00;99.90
10980;DHT22;5543;51.734;8.744;2023-04-03T04:16:18;-0.90;99.90
10980;DHT22;5543;51.734;8.744;2023-04-03T04:18:46;-0.90;99.90
10980;DHT22;5543;51.734;8.744;2023-04-03T04:21:15;-0.90;99.90
10980;DHT22;5543;51.734;8.744;2023-04-03T04:23:44;-1.00;99.90
10980;DHT22;5543;51.734;8.744;2023-04-03T04:26:12;-0.90;99.90
10980;DHT22;5543;51.734;8.744;2023-04-03T04:28:41;-0.90;99.90
10980;DHT22;5543;51.734;8.744;2023-04-03T04:31:09;-0.60;99.90
10980;DHT22;5543;51.734;8.744;2023-04-03T04:33:37;-0.80;99.90
10980;DHT22;5543;51.734;8.744;2023-04-03T04:36:05;-0.80;99.90
10980;DHT22;5543;51.734;8.744;2023-04-03T04:38:34;-0.80;99.90
10980;DHT22;5543;51.734;8.744;2023-04-03T04:41:03;-0.80;99.90
10980;DHT22;5543;51.734;8.744;2023-04-03T04:43:32;-0.70;99.90
10980;DHT22;5543;51.734;8.744;2023-04-03T04:46:01;-0.60;99.90
10980;DHT22;5543;51.734;8.744;2023-04-03T04:48:29;-0.70;99.90
10980;DHT22;5543;51.734;8.744;2023-04-03T04:50:58;-0.70;99.90
10980;DHT22;5543;51.734;8.744;2023-04-03T04:53:26;-0.80;99.90
10980;DHT22;5543;51.734;8.744;2023-04-03T04:55:55;-0.80;99.90
10980;DHT22;5543;51.734;8.744;2023-04-03T04:58:24;-0.80;99.90
10980;DHT22;5543;51.734;8.744;2023-04-03T05:00:58;-0.80;99.90
10980;DHT22;5543;51.734;8.744;2023-04-03T05:03:27;-0.80;99.90
10980;DHT22;5543;51.734;8.744;2023-04-03T05:05:55;-0.80;99.90
10980;DHT22;5543;51.734;8.744;2023-04-03T05:08:23;-0.70;99.90
10980;DHT22;5543;51.734;8.744;2023-04-03T05:10:51;-0.70;99.90
10980;DHT22;5543;51.734;8.744;2023-04-03T05:13:22;-0.70;99.90
10980;DHT22;5543;51.734;8.744;2023-04-03T05:15:51;-0.70;99.90
10980;DHT22;5543;51.734;8.744;2023-04-03T05:18:19;-0.70;99.90
10980;DHT22;5543;51.734;8.744;2023-04-03T05:20:48;-0.70;99.90
10980;DHT22;5543;51.734;8.744;2023-04-03T05:23:17;-0.60;99.90
10980;DHT22;5543;51.734;8.744;2023-04-03T05:25:45;-0.60;99.90
10980;DHT22;5543;51.734;8.744;2023-04-03T05:28:13;-0.60;99.90
10980;DHT22;5543;51.734;8.744;2023-04-03T05:30:41;-0.30;99.90
10980;DHT22;5543;51.734;8.744;2023-04-03T05:33:11;-0.50;99.90
10980;DHT22;5543;51.734;8.744;2023-04-03T05:35:40;-0.50;99.90
10980;DHT22;5543;51.734;8.744;2023-04-03T05:38:11;-0.50;99.90
10980;DHT22;5543;51.734;8.744;2023-04-03T05:40:39;-0.50;99.90
10980;DHT22;5543;51.734;8.744;2023-04-03T05:43:07;-0.40;99.90
10980;DHT22;5543;51.734;8.744;2023-04-03T05:45:35;-0.40;99.90
10980;DHT22;5543;51.734;8.744;2023-04-03T05:48:03;-0.30;99.90
10980;DHT22;5543;51.734;8.744;2023-04-03T05:50:33;-0.30;99.90
10980;DHT22;5543;51.734;8.744;2023-04-03T05:53:02;-0.30;99.90
10980;DHT22;5543;51.734;8.744;2023-04-03T05:55:30;-0.20;99.90
10980;DHT22;5543;51.734;8.744;2023-04-03T05:57:58;-0.10;99.90
10980;DHT22;5543;51.734;8.744;2023-04-03T06:00:26;0.00;99.90
10980;DHT22;5543;51.734;8.744;2023-04-03T06:02:55;0.10;99.90
10980;DHT22;5543;51.734;8.744;2023-04-03T06:05:23;0.20;99.90
10980;DHT22;5543;51.734;8.744;2023-04-03T06:07:53;0.20;99.90
10980;DHT22;5543;51.734;8.744;2023-04-03T06:10:21;0.20;99.90
10980;DHT22;5543;51.734;8.744;2023-04-03T06:12:49;0.30;99.90
10980;DHT22;5543;51.734;8.744;2023-04-03T06:15:18;0.30;99.90
10980;DHT22;5543;51.734;8.744;2023-04-03T06:17:47;0.40;99.90
10980;DHT22;5543;51.734;8.744;2023-04-03T06:20:15;0.40;99.90
10980;DHT22;5543;51.734;8.744;2023-04-03T06:22:43;0.50;99.90
10980;DHT22;5543;51.734;8.744;2023-04-03T06:25:12;0.50;99.90
10980;DHT22;5543;51.734;8.744;2023-04-03T06:27:41;0.60;99.90
10980;DHT22;5543;51.734;8.744;2023-04-03T06:30:09;0.60;99.90
10980;DHT22;5543;51.734;8.744;2023-04-03T06:32:37;0.70;99.90
10980;DHT22;5543;51.734;8.744;2023-04-03T06:35:06;0.80;99.90
10980;DHT22;5543;51.734;8.744;2023-04-03T06:37:35;0.80;99.90
10980;DHT22;5543;51.734;8.744;2023-04-03T06:40:04;0.90;99.90
10980;DHT22;5543;51.734;8.744;2023-04-03T06:42:33;0.90;99.90
10980;DHT22;5543;51.734;8.744;2023-04-03T06:45:02;1.00;99.90
10980;DHT22;5543;51.734;8.744;2023-04-03T06:47:30;1.10;99.90
10980;DHT22;5543;51.734;8.744;2023-04-03T06:49:58;1.30;99.90
10980;DHT22;5543;51.734;8.744;2023-04-03T06:52:26;1.20;99.90
10980;DHT22;5543;51.734;8.744;2023-04-03T06:54:54;1.30;99.90
10980;DHT22;5543;51.734;8.744;2023-04-03T06:57:24;1.30;99.90
10980;DHT22;5543;51.734;8.744;2023-04-03T06:59:53;1.40;99.90
10980;DHT22;5543;51.734;8.744;2023-04-03T07:02:22;1.50;99.90
10980;DHT22;5543;51.734;8.744;2023-04-03T07:04:50;1.60;99.90
10980;DHT22;5543;51.734;8.744;2023-04-03T07:07:18;1.70;99.90
10980;DHT22;5543;51.734;8.744;2023-04-03T07:09:47;1.80;99.90
10980;DHT22;5543;51.734;8.744;2023-04-03T07:12:16;2.00;99.90
10980;DHT22;5543;51.734;8.744;2023-04-03T07:14:44;2.10;99.90
10980;DHT22;5543;51.734;8.744;2023-04-03T07:17:15;2.20;99.90
10980;DHT22;5543;51.734;8.744;2023-04-03T07:19:43;2.40;99.90
10980;DHT22;5543;51.734;8.744;2023-04-03T07:22:11;2.50;99.90
10980;DHT22;5543;51.734;8.744;2023-04-03T07:24:40;2.60;99.90
10980;DHT22;5543;51.734;8.744;2023-04-03T07:27:08;2.70;99.90
10980;DHT22;5543;51.734;8.744;2023-04-03T07:29:39;2.70;99.90
10980;DHT22;5543;51.734;8.744;2023-04-03T07:32:08;2.90;99.90
10980;DHT22;5543;51.734;8.744;2023-04-03T07:34:38;3.20;99.90
10980;DHT22;5543;51.734;8.744;2023-04-03T07:37:06;3.20;99.90
10980;DHT22;5543;51.734;8.744;2023-04-03T07:39:36;3.30;99.90
10980;DHT22;5543;51.734;8.744;2023-04-03T07:42:04;3.50;99.90
10980;DHT22;5543;51.734;8.744;2023-04-03T07:44:33;3.70;99.90
10980;DHT22;5543;51.734;8.744;2023-04-03T07:47:02;3.80;99.90
10980;DHT22;5543;51.734;8.744;2023-04-03T07:49:30;4.00;99.90
10980;DHT22;5543;51.734;8.744;2023-04-03T07:52:01;4.20;99.60
10980;DHT22;5543;51.734;8.744;2023-04-03T07:54:29;4.40;99.40
10980;DHT22;5543;51.734;8.744;2023-04-03T07:56:57;4.80;98.90
10980;DHT22;5543;51.734;8.744;2023-04-03T07:59:25;4.60;96.80
10980;DHT22;5543;51.734;8.744;2023-04-03T08:01:53;4.80;98.80
10980;DHT22;5543;51.734;8.744;2023-04-03T08:04:21;5.00;97.10
10980;DHT22;5543;51.734;8.744;2023-04-03T08:06:49;5.30;95.60
10980;DHT22;5543;51.734;8.744;2023-04-03T08:09:19;5.70;94.30
10980;DHT22;5543;51.734;8.744;2023-04-03T08:11:47;6.30;92.90
10980;DHT22;5543;51.734;8.744;2023-04-03T08:14:15;7.20;92.90
10980;DHT22;5543;51.734;8.744;2023-04-03T08:16:45;8.00;91.00
10980;DHT22;5543;51.734;8.744;2023-04-03T08:19:14;8.80;90.00
10980;DHT22;5543;51.734;8.744;2023-04-03T08:21:53;9.30;89.30
10980;DHT22;5543;51.734;8.744;2023-04-03T08:24:22;9.80;86.00
10980;DHT22;5543;51.734;8.744;2023-04-03T08:26:50;10.20;82.20
10980;DHT22;5543;51.734;8.744;2023-04-03T08:29:18;10.80;78.10
10980;DHT22;5543;51.734;8.744;2023-04-03T08:31:47;11.00;76.30
10980;DHT22;5543;51.734;8.744;2023-04-03T08:34:17;11.50;76.00
10980;DHT22;5543;51.734;8.744;2023-04-03T08:36:45;10.90;75.30
10980;DHT22;5543;51.734;8.744;2023-04-03T08:39:14;11.10;75.60
10980;DHT22;5543;51.734;8.744;2023-04-03T08:41:44;11.30;72.70
10980;DHT22;5543;51.734;8.744;2023-04-03T08:44:17;11.70;72.80
10980;DHT22;5543;51.734;8.744;2023-04-03T08:47:00;12.90;70.10
10980;DHT22;5543;51.734;8.744;2023-04-03T08:49:32;13.30;70.30
10980;DHT22;5543;51.734;8.744;2023-04-03T08:52:05;13.60;69.30
10980;DHT22;5543;51.734;8.744;2023-04-03T08:54:45;13.70;66.60
10980;DHT22;5543;51.734;8.744;2023-04-03T08:57:26;13.50;66.70
10980;DHT22;5543;51.734;8.744;2023-04-03T08:59:58;13.30;66.00
10980;DHT22;5543;51.734;8.744;2023-04-03T09:02:32;13.70;66.70
10980;DHT22;5543;51.734;8.744;2023-04-03T09:05:05;15.10;67.90
10980;DHT22;5543;51.734;8.744;2023-04-03T09:07:39;16.60;65.80
10980;DHT22;5543;51.734;8.744;2023-04-03T09:10:12;16.40;59.20
10980;DHT22;5543;51.734;8.744;2023-04-03T09:12:44;16.50;60.60
10980;DHT22;5543;51.734;8.744;2023-04-03T09:15:18;17.40;61.60
10980;DHT22;5543;51.734;8.744;2023-04-03T09:18:06;18.10;58.40
10980;DHT22;5543;51.734;8.744;2023-04-03T09:20:43;18.20;53.40
10980;DHT22;5543;51.734;8.744;2023-04-03T09:23:19;17.50;51.30
10980;DHT22;5543;51.734;8.744;2023-04-03T09:25:49;16.50;54.60
10980;DHT22;5543;51.734;8.744;2023-04-03T09:28:20;16.90;54.20
10980;DHT22;5543;51.734;8.744;2023-04-03T09:30:48;17.20;56.00
10980;DHT22;5543;51.734;8.744;2023-04-03T09:33:17;16.90;55.30
10980;DHT22;5543;51.734;8.744;2023-04-03T09:35:45;17.60;55.70
10980;DHT22;5543;51.734;8.744;2023-04-03T09:38:18;17.80;53.50
10980;DHT22;5543;51.734;8.744;2023-04-03T09:40:49;18.50;54.30
10980;DHT22;5543;51.734;8.744;2023-04-03T09:43:25;18.40;51.90
10980;DHT22;5543;51.734;8.744;2023-04-03T09:45:54;18.20;53.70
10980;DHT22;5543;51.734;8.744;2023-04-03T09:48:25;16.90;48.80
10980;DHT22;5543;51.734;8.744;2023-04-03T09:50:58;15.60;50.20
10980;DHT22;5543;51.734;8.744;2023-04-03T09:53:35;15.10;50.70
10980;DHT22;5543;51.734;8.744;2023-04-03T09:56:19;14.70;53.20
10980;DHT22;5543;51.734;8.744;2023-04-03T09:58:52;14.60;53.70
10980;DHT22;5543;51.734;8.744;2023-04-03T10:01:36;14.80;53.30
10980;DHT22;5543;51.734;8.744;2023-04-03T10:04:08;13.40;53.40
10980;DHT22;5543;51.734;8.744;2023-04-03T10:06:40;12.90;53.30
10980;DHT22;5543;51.734;8.744;2023-04-03T10:09:19;12.90;56.60
10980;DHT22;5543;51.734;8.744;2023-04-03T10:12:00;12.70;54.00
10980;DHT22;5543;51.734;8.744;2023-04-03T10:14:31;11.50;54.10
10980;DHT22;5543;51.734;8.744;2023-04-03T10:17:09;10.70;58.20
10980;DHT22;5543;51.734;8.744;2023-04-03T10:19:45;11.60;59.30
10980;DHT22;5543;51.734;8.744;2023-04-03T10:22:30;12.60;57.00
10980;DHT22;5543;51.734;8.744;2023-04-03T10:25:07;12.40;54.70
10980;DHT22;5543;51.734;8.744;2023-04-03T10:27:46;12.50;55.50
10980;DHT22;5543;51.734;8.744;2023-04-03T10:30:36;14.00;56.30
10980;DHT22;5543;51.734;8.744;2023-04-03T10:33:20;14.10;52.60
10980;DHT22;5543;51.734;8.744;2023-04-03T10:36:01;13.70;53.60
10980;DHT22;5543;51.734;8.744;2023-04-03T10:38:36;13.40;53.80
10980;DHT22;5543;51.734;8.744;2023-04-03T10:41:13;13.40;54.70
10980;DHT22;5543;51.734;8.744;2023-04-03T10:43:48;13.80;54.80
10980;DHT22;5543;51.734;8.744;2023-04-03T10:46:25;14.60;53.20
10980;DHT22;5543;51.734;8.744;2023-04-03T10:49:05;14.20;52.90
10980;DHT22;5543;51.734;8.744;2023-04-03T10:51:42;15.50;56.70
10980;DHT22;5543;51.734;8.744;2023-04-03T10:54:13;15.90;54.70
10980;DHT22;5543;51.734;8.744;2023-04-03T10:56:48;16.20;55.20
10980;DHT22;5543;51.734;8.744;2023-04-03T10:59:32;16.40;54.40
10980;DHT22;5543;51.734;8.744;2023-04-03T11:02:07;16.20;54.70
10980;DHT22;5543;51.734;8.744;2023-04-03T11:04:49;15.40;52.90
10980;DHT22;5543;51.734;8.744;2023-04-03T11:07:22;13.70;53.20
10980;DHT22;5543;51.734;8.744;2023-04-03T11:09:55;12.90;54.30
10980;DHT22;5543;51.734;8.744;2023-04-03T11:12:28;11.00;55.50
10980;DHT22;5543;51.734;8.744;2023-04-03T11:14:58;10.50;58.80
10980;DHT22;5543;51.734;8.744;2023-04-03T11:17:35;9.90;59.20
10980;DHT22;5543;51.734;8.744;2023-04-03T11:20:10;9.30;60.90
10980;DHT22;5543;51.734;8.744;2023-04-03T11:22:44;8.80;60.20
10980;DHT22;5543;51.734;8.744;2023-04-03T11:25:19;8.40;60.40
10980;DHT22;5543;51.734;8.744;2023-04-03T11:27:53;8.20;61.40
10980;DHT22;5543;51.734;8.744;2023-04-03T11:30:24;8.80;63.50
10980;DHT22;5543;51.734;8.744;2023-04-03T11:33:09;9.40;62.40
10980;DHT22;5543;51.734;8.744;2023-04-03T11:35:43;10.20;63.10
10980;DHT22;5543;51.734;8.744;2023-04-03T11:38:19;10.20;60.20
10980;DHT22;5543;51.734;8.744;2023-04-03T11:40:49;10.40;62.40
10980;DHT22;5543;51.734;8.744;2023-04-03T11:43:24;10.40;63.70
10980;DHT22;5543;51.734;8.744;2023-04-03T11:45:56;10.50;62.40
10980;DHT22;5543;51.734;8.744;2023-04-03T11:48:52;10.50;59.80
10980;DHT22;5543;51.734;8.744;2023-04-03T11:51:50;10.60;63.00
10980;DHT22;5543;51.734;8.744;2023-04-03T11:54:51;10.40;61.50
10980;DHT22;5543;51.734;8.744;2023-04-03T11:57:44;10.40;61.00
10980;DHT22;5543;51.734;8.744;2023-04-03T12:09:58;11.00;63.80
10980;DHT22;5543;51.734;8.744;2023-04-03T12:12:30;10.90;63.00
10980;DHT22;5543;51.734;8.744;2023-04-03T12:15:23;10.50;62.30
10980;DHT22;5543;51.734;8.744;2023-04-03T12:17:52;10.60;64.60
10980;DHT22;5543;51.734;8.744;2023-04-03T12:20:52;10.60;65.00
10980;DHT22;5543;51.734;8.744;2023-04-03T12:23:32;10.80;63.60
10980;DHT22;5543;51.734;8.744;2023-04-03T12:26:20;10.10;60.00
10980;DHT22;5543;51.734;8.744;2023-04-03T12:28:51;9.70;62.50
10980;DHT22;5543;51.734;8.744;2023-04-03T12:31:23;9.80;64.20
10980;DHT22;5543;51.734;8.744;2023-04-03T12:34:09;9.80;63.60
10980;DHT22;5543;51.734;8.744;2023-04-03T12:36:51;9.70;63.10
10980;DHT22;5543;51.734;8.744;2023-04-03T12:39:45;9.80;62.10
10980;DHT22;5543;51.734;8.744;2023-04-03T12:42:31;9.90;63.90
10980;DHT22;5543;51.734;8.744;2023-04-03T12:45:13;10.20;62.50
10980;DHT22;5543;51.734;8.744;2023-04-03T12:47:44;10.10;63.50
10980;DHT22;5543;51.734;8.744;2023-04-03T12:50:20;10.30;63.40
10980;DHT22;5543;51.734;8.744;2023-04-03T12:52:54;10.60;61.70
10980;DHT22;5543;51.734;8.744;2023-04-03T12:55:24;10.60;61.20
10980;DHT22;5543;51.734;8.744;2023-04-03T12:57:54;10.60;61.30
10980;DHT22;5543;51.734;8.744;2023-04-03T13:00:30;10.80;61.50
10980;DHT22;5543;51.734;8.744;2023-04-03T13:03:01;10.90;60.90
10980;DHT22;5543;51.734;8.744;2023-04-03T13:05:31;11.40;62.40
10980;DHT22;5543;51.734;8.744;2023-04-03T13:08:05;12.00;60.90
10980;DHT22;5543;51.734;8.744;2023-04-03T13:10:45;11.50;60.10
10980;DHT22;5543;51.734;8.744;2023-04-03T13:13:16;10.80;59.30
10980;DHT22;5543;51.734;8.744;2023-04-03T13:15:47;10.90;61.60
10980;DHT22;5543;51.734;8.744;2023-04-03T13:18:29;10.60;61.20
10980;DHT22;5543;51.734;8.744;2023-04-03T13:21:01;10.50;61.10
10980;DHT22;5543;51.734;8.744;2023-04-03T13:23:30;10.20;59.10
10980;DHT22;5543;51.734;8.744;2023-04-03T13:26:00;10.10;61.10
10980;DHT22;5543;51.734;8.744;2023-04-03T13:28:32;9.80;62.10
10980;DHT22;5543;51.734;8.744;2023-04-03T13:31:05;9.80;62.60
10980;DHT22;5543;51.734;8.744;2023-04-03T13:33:34;10.10;62.10
10980;DHT22;5543;51.734;8.744;2023-04-03T13:36:08;10.30;60.30
10980;DHT22;5543;51.734;8.744;2023-04-03T13:38:39;9.80;59.40
10980;DHT22;5543;51.734;8.744;2023-04-03T13:41:24;9.80;60.30
10980;DHT22;5543;51.734;8.744;2023-04-03T13:43:54;9.60;61.80
10980;DHT22;5543;51.734;8.744;2023-04-03T13:46:32;9.80;61.70
10980;DHT22;5543;51.734;8.744;2023-04-03T13:49:18;10.00;62.20
10980;DHT22;5543;51.734;8.744;2023-04-03T13:51:46;10.50;61.80
10980;DHT22;5543;51.734;8.744;2023-04-03T13:54:32;10.50;59.50
10980;DHT22;5543;51.734;8.744;2023-04-03T13:57:01;9.80;58.10
10980;DHT22;5543;51.734;8.744;2023-04-03T13:59:33;9.60;59.80
10980;DHT22;5543;51.734;8.744;2023-04-03T14:02:15;9.80;60.30
10980;DHT22;5543;51.734;8.744;2023-04-03T14:05:02;10.30;59.90
10980;DHT22;5543;51.734;8.744;2023-04-03T14:07:31;10.80;59.40
10980;DHT22;5543;51.734;8.744;2023-04-03T14:09:59;11.80;61.70
10980;DHT22;5543;51.734;8.744;2023-04-03T14:12:31;12.00;58.70
10980;DHT22;5543;51.734;8.744;2023-04-03T14:15:04;11.50;59.10
10980;DHT22;5543;51.734;8.744;2023-04-03T14:17:33;11.20;58.30
10980;DHT22;5543;51.734;8.744;2023-04-03T14:20:02;10.80;58.20
10980;DHT22;5543;51.734;8.744;2023-04-03T14:22:32;10.30;58.70
10980;DHT22;5543;51.734;8.744;2023-04-03T14:25:01;10.90;58.90
10980;DHT22;5543;51.734;8.744;2023-04-03T14:27:34;12.50;57.10
10980;DHT22;5543;51.734;8.744;2023-04-03T14:30:05;13.30;56.90
10980;DHT22;5543;51.734;8.744;2023-04-03T14:32:34;13.60;55.70
10980;DHT22;5543;51.734;8.744;2023-04-03T14:35:03;13.60;55.30
10980;DHT22;5543;51.734;8.744;2023-04-03T14:37:31;14.50;57.50
10980;DHT22;5543;51.734;8.744;2023-04-03T14:40:01;14.40;54.80
10980;DHT22;5543;51.734;8.744;2023-04-03T14:42:34;13.90;56.10
10980;DHT22;5543;51.734;8.744;2023-04-03T14:45:07;13.30;55.50
10980;DHT22;5543;51.734;8.744;2023-04-03T14:47:39;12.90;56.90
10980;DHT22;5543;51.734;8.744;2023-04-03T14:50:14;12.90;58.60
10980;DHT22;5543;51.734;8.744;2023-04-03T14:52:44;12.80;57.80
10980;DHT22;5543;51.734;8.744;2023-04-03T14:55:15;12.50;56.90
10980;DHT22;5543;51.734;8.744;2023-04-03T14:57:43;11.20;57.50
10980;DHT22;5543;51.734;8.744;2023-04-03T15:00:16;10.90;59.30
10980;DHT22;5543;51.734;8.744;2023-04-03T15:02:45;10.10;58.40
10980;DHT22;5543;51.734;8.744;2023-04-03T15:05:15;9.90;61.00
10980;DHT22;5543;51.734;8.744;2023-04-03T15:07:46;10.30;63.40
10980;DHT22;5543;51.734;8.744;2023-04-03T15:10:18;10.50;59.50
10980;DHT22;5543;51.734;8.744;2023-04-03T15:12:47;10.40;58.20
10980;DHT22;5543;51.734;8.744;2023-04-03T15:15:18;10.50;59.60
10980;DHT22;5543;51.734;8.744;2023-04-03T15:17:51;11.00;59.30
10980;DHT22;5543;51.734;8.744;2023-04-03T15:20:22;10.90;59.00
10980;DHT22;5543;51.734;8.744;2023-04-03T15:22:51;10.90;58.30
10980;DHT22;5543;51.734;8.744;2023-04-03T15:25:19;10.70;58.00
10980;DHT22;5543;51.734;8.744;2023-04-03T15:27:47;10.40;59.90
10980;DHT22;5543;51.734;8.744;2023-04-03T15:30:18;10.50;60.00
10980;DHT22;5543;51.734;8.744;2023-04-03T15:32:48;10.70;60.40
10980;DHT22;5543;51.734;8.744;2023-04-03T15:35:16;10.60;58.60
10980;DHT22;5543;51.734;8.744;2023-04-03T15:37:45;10.60;59.70
10980;DHT22;5543;51.734;8.744;2023-04-03T15:40:14;10.60;59.80
10980;DHT22;5543;51.734;8.744;2023-04-03T15:42:42;10.70;60.00
10980;DHT22;5543;51.734;8.744;2023-04-03T15:45:11;10.60;59.70
10980;DHT22;5543;51.734;8.744;2023-04-03T15:47:41;10.40;59.70
10980;DHT22;5543;51.734;8.744;2023-04-03T15:50:10;10.70;59.60
10980;DHT22;5543;51.734;8.744;2023-04-03T15:52:38;10.70;58.40
10980;DHT22;5543;51.734;8.744;2023-04-03T15:55:06;10.40;58.90
10980;DHT22;5543;51.734;8.744;2023-04-03T15:57:35;10.10;59.10
10980;DHT22;5543;51.734;8.744;2023-04-03T16:00:12;9.60;60.80
10980;DHT22;5543;51.734;8.744;2023-04-03T16:02:44;9.30;61.60
10980;DHT22;5543;51.734;8.744;2023-04-03T16:05:13;9.20;61.70
10980;DHT22;5543;51.734;8.744;2023-04-03T16:07:42;9.40;62.40
10980;DHT22;5543;51.734;8.744;2023-04-03T16:10:12;9.40;63.10
10980;DHT22;5543;51.734;8.744;2023-04-03T16:12:41;9.40;60.00
10980;DHT22;5543;51.734;8.744;2023-04-03T16:15:10;9.50;61.80
10980;DHT22;5543;51.734;8.744;2023-04-03T16:17:40;9.70;61.50
10980;DHT22;5543;51.734;8.744;2023-04-03T16:20:12;9.80;61.70
10980;DHT22;5543;51.734;8.744;2023-04-03T16:22:43;10.00;59.80
10980;DHT22;5543;51.734;8.744;2023-04-03T16:25:12;9.60;59.30
10980;DHT22;5543;51.734;8.744;2023-04-03T16:27:41;9.40;61.60
10980;DHT22;5543;51.734;8.744;2023-04-03T16:30:11;9.20;62.40